createdAt,value
2022-08-30T00:02:26.033Z,100684.38
2022-08-30T00:04:55.326Z,100683.53
2022-08-30T00:07:23.999Z,100678.59
2022-08-30T00:09:52.441Z,100679.59
2022-08-30T00:12:21.308Z,100683.97
2022-08-30T00:14:49.854Z,100681.28
2022-08-30T00:17:19.403Z,100682.50
2022-08-30T00:19:47.910Z,100678.97
2022-08-30T00:22:16.392Z,100684.38
2022-08-30T00:24:44.846Z,100683.13
2022-08-30T00:27:13.184Z,100685.38
2022-08-30T00:29:41.623Z,100682.44
2022-08-30T00:32:10.089Z,100686.19
2022-08-30T00:34:38.641Z,100688.88
2022-08-30T00:37:07.031Z,100689.06
2022-08-30T00:39:35.495Z,100697.78
2022-08-30T00:42:04.161Z,100697.56
2022-08-30T00:44:32.608Z,100699.66
2022-08-30T00:47:01.343Z,100696.31
2022-08-30T00:49:31.056Z,100702.97
2022-08-30T00:51:59.856Z,100708.16
2022-08-30T00:54:29.264Z,100705.25
2022-08-30T00:56:57.750Z,100705.66
2022-08-30T00:59:27.723Z,100704.22
2022-08-30T01:01:56.199Z,100694.88
2022-08-30T01:04:27.240Z,100703.78
2022-08-30T01:06:55.914Z,100706.63
2022-08-30T01:09:25.136Z,100699.19
2022-08-30T01:11:53.670Z,100702.69
2022-08-30T01:14:25.927Z,100695.63
2022-08-30T01:16:57.858Z,100696.47
2022-08-30T01:19:40.468Z,100703.28
2022-08-30T01:22:29.714Z,100713.69
2022-08-30T01:25:01.188Z,100719.69
2022-08-30T01:27:31.127Z,100720.50
2022-08-30T01:30:00.496Z,100707.06
2022-08-30T01:32:30.976Z,100707.47
2022-08-30T01:34:59.614Z,100706.88
2022-08-30T01:37:32.731Z,100708.75
2022-08-30T01:40:01.560Z,100705.47
2022-08-30T01:42:30.308Z,100714.34
2022-08-30T01:44:58.729Z,100710.00
2022-08-30T01:47:27.627Z,100711.03
2022-08-30T01:49:55.816Z,100703.59
2022-08-30T01:52:24.219Z,100703.97
2022-08-30T01:54:53.068Z,100705.19
2022-08-30T01:57:26.844Z,100704.78
2022-08-30T01:59:55.582Z,100701.44
2022-08-30T02:02:29.694Z,100699.19
2022-08-30T02:04:58.663Z,100694.63
2022-08-30T02:07:27.450Z,100692.97
2022-08-30T02:09:56.792Z,100696.06
2022-08-30T02:12:25.939Z,100693.50
2022-08-30T02:14:54.402Z,100690.59
2022-08-30T02:17:22.996Z,100691.41
2022-08-30T02:19:51.478Z,100691.16
2022-08-30T02:22:20.995Z,100694.66
2022-08-30T02:24:49.425Z,100688.06
2022-08-30T02:27:17.859Z,100689.53
2022-08-30T02:29:46.248Z,100695.91
2022-08-30T02:32:14.667Z,100699.19
2022-08-30T02:34:43.116Z,100694.84
2022-08-30T02:37:11.890Z,100695.22
2022-08-30T02:39:40.430Z,100701.66
2022-08-30T02:42:08.876Z,100704.38
2022-08-30T02:44:37.289Z,100698.44
2022-08-30T02:47:06.156Z,100688.28
2022-08-30T02:49:34.551Z,100700.06
2022-08-30T02:52:05.910Z,100699.22
2022-08-30T02:54:34.620Z,100693.22
2022-08-30T02:57:05.224Z,100687.25
2022-08-30T02:59:37.007Z,100687.63
2022-08-30T03:02:05.562Z,100682.00
2022-08-30T03:04:33.934Z,100684.28
2022-08-30T03:07:02.368Z,100684.06
2022-08-30T03:09:30.756Z,100675.56
2022-08-30T03:11:59.241Z,100676.78
2022-08-30T03:14:28.193Z,100672.00
2022-08-30T03:16:56.902Z,100673.84
2022-08-30T03:19:26.114Z,100677.59
2022-08-30T03:21:54.565Z,100679.84
2022-08-30T03:24:22.994Z,100694.69
2022-08-30T03:26:51.380Z,100690.28
2022-08-30T03:29:20.063Z,100691.91
2022-08-30T03:31:53.107Z,100678.47
2022-08-30T03:34:22.866Z,100688.63
2022-08-30T03:36:52.836Z,100690.09
2022-08-30T03:39:22.086Z,100685.13
2022-08-30T03:41:50.625Z,100687.38
2022-08-30T03:44:20.905Z,100694.78
2022-08-30T03:46:50.478Z,100697.03
2022-08-30T03:49:19.761Z,100695.78
2022-08-30T03:51:48.574Z,100699.03
2022-08-30T03:54:17.627Z,100700.44
2022-08-30T03:56:46.260Z,100704.75
2022-08-30T03:59:14.857Z,100699.78
2022-08-30T04:01:45.635Z,100706.38
2022-08-30T04:04:18.617Z,100695.19
2022-08-30T04:06:49.376Z,100701.09
2022-08-30T04:09:18.177Z,100694.09
2022-08-30T04:11:46.595Z,100692.03
2022-08-30T04:14:15.106Z,100694.53
2022-08-30T04:16:43.628Z,100701.56
2022-08-30T04:19:12.220Z,100695.94
2022-08-30T04:21:43.317Z,100700.66
2022-08-30T04:24:13.036Z,100705.63
2022-08-30T04:26:41.574Z,100703.16
2022-08-30T04:29:11.756Z,100702.31
2022-08-30T04:31:40.307Z,100699.63
2022-08-30T04:34:10.161Z,100707.88
2022-08-30T04:36:38.591Z,100705.19
2022-08-30T04:39:07.747Z,100703.72
2022-08-30T04:41:40.904Z,100704.78
2022-08-30T04:44:14.248Z,100711.34
2022-08-30T04:46:48.200Z,100705.34
2022-08-30T04:49:16.808Z,100711.53
2022-08-30T04:51:45.244Z,100722.91
2022-08-30T04:54:13.930Z,100720.03
2022-08-30T04:56:43.768Z,100726.88
2022-08-30T04:59:12.166Z,100731.84
2022-08-30T05:01:45.356Z,100735.00
2022-08-30T05:04:15.478Z,100742.03
2022-08-30T05:06:44.368Z,100745.19
2022-08-30T05:09:13.078Z,100754.44
2022-08-30T05:11:43.317Z,100751.56
2022-08-30T05:14:11.818Z,100756.56
2022-08-30T05:16:41.616Z,100755.94
2022-08-30T05:19:10.192Z,100761.09
2022-08-30T05:21:40.657Z,100763.84
2022-08-30T05:24:09.998Z,100761.03
2022-08-30T05:26:39.960Z,100773.28
2022-08-30T05:29:08.422Z,100773.13
2022-08-30T05:31:38.151Z,100776.31
2022-08-30T05:34:06.781Z,100778.03
2022-08-30T05:36:37.776Z,100779.53
2022-08-30T05:39:10.846Z,100777.13
2022-08-30T05:41:40.948Z,100770.81
2022-08-30T05:44:11.608Z,100769.41
2022-08-30T05:46:45.696Z,100768.88
2022-08-30T05:49:14.127Z,100767.47
2022-08-30T05:51:43.412Z,100763.16
2022-08-30T05:54:13.360Z,100752.44
2022-08-30T05:56:44.477Z,100756.78
2022-08-30T05:59:13.532Z,100761.22
2022-08-30T06:01:46.371Z,100763.53
2022-08-30T06:04:15.544Z,100766.84
2022-08-30T06:06:45.579Z,100768.16
2022-08-30T06:09:15.919Z,100764.41
2022-08-30T06:11:45.768Z,100761.50
2022-08-30T06:14:14.749Z,100762.34
2022-08-30T06:16:45.814Z,100778.91
2022-08-30T06:19:15.731Z,100775.75
2022-08-30T06:21:49.011Z,100773.03
2022-08-30T06:24:17.537Z,100781.31
2022-08-30T06:26:48.306Z,100781.91
2022-08-30T06:29:21.171Z,100784.34
2022-08-30T06:31:50.171Z,100781.78
2022-08-30T06:34:19.113Z,100781.34
2022-08-30T06:36:47.537Z,100780.97
2022-08-30T06:39:16.018Z,100778.13
2022-08-30T06:41:44.697Z,100780.00
2022-08-30T06:44:13.291Z,100782.75
2022-08-30T06:46:41.730Z,100776.44
2022-08-30T06:49:10.226Z,100780.94
2022-08-30T06:51:40.672Z,100779.44
2022-08-30T06:54:11.974Z,100789.59
2022-08-30T06:56:55.247Z,100793.50
2022-08-30T06:59:26.023Z,100792.06
2022-08-30T07:01:56.291Z,100788.19
2022-08-30T07:04:24.902Z,100786.94
2022-08-30T07:06:53.377Z,100786.03
2022-08-30T07:09:23.005Z,100791.53
2022-08-30T07:11:52.761Z,100789.13
2022-08-30T07:14:22.176Z,100789.13
2022-08-30T07:16:51.248Z,100795.91
2022-08-30T07:19:20.979Z,100794.69
2022-08-30T07:21:50.495Z,100795.63
2022-08-30T07:24:19.841Z,100795.63
2022-08-30T07:26:52.053Z,100795.56
2022-08-30T07:29:21.590Z,100793.41
2022-08-30T07:31:50.064Z,100799.88
2022-08-30T07:34:20.551Z,100797.28
2022-08-30T07:36:50.867Z,100806.28
2022-08-30T07:39:19.240Z,100802.69
2022-08-30T07:41:48.772Z,100801.91
2022-08-30T07:44:17.383Z,100805.38
2022-08-30T07:46:45.869Z,100814.22
2022-08-30T07:49:14.432Z,100808.91
2022-08-30T07:51:43.010Z,100806.53
2022-08-30T07:54:11.453Z,100805.63
2022-08-30T07:56:39.864Z,100815.78
2022-08-30T07:59:08.419Z,100813.28
2022-08-30T08:01:36.844Z,100809.03
2022-08-30T08:04:05.012Z,100806.09
2022-08-30T08:06:34.736Z,100802.63
2022-08-30T08:09:03.835Z,100800.91
2022-08-30T08:11:33.926Z,100805.41
2022-08-30T08:14:03.291Z,100806.31
2022-08-30T08:16:36.685Z,100808.50
2022-08-30T08:19:08.900Z,100805.03
2022-08-30T08:21:38.055Z,100813.16
2022-08-30T08:24:07.614Z,100812.78
2022-08-30T08:26:38.365Z,100814.97
2022-08-30T08:29:11.087Z,100816.94
2022-08-30T08:31:41.388Z,100814.97
2022-08-30T08:34:11.707Z,100816.34
2022-08-30T08:36:40.403Z,100818.88
2022-08-30T08:39:10.672Z,100816.47
2022-08-30T08:42:22.191Z,100824.56
2022-08-30T08:45:19.525Z,100816.94
2022-08-30T08:48:05.127Z,100821.13
2022-08-30T08:50:34.014Z,100821.25
2022-08-30T08:53:45.431Z,100813.63
2022-08-30T08:56:17.935Z,100816.72
2022-08-30T08:58:56.189Z,100813.91
2022-08-30T09:01:29.260Z,100812.81
2022-08-30T09:04:00.292Z,100812.81
2022-08-30T09:06:57.004Z,100814.75
2022-08-30T09:09:38.986Z,100815.13
2022-08-30T09:12:11.974Z,100816.66
2022-08-30T09:14:54.513Z,100818.00
2022-08-30T09:17:24.387Z,100817.28
2022-08-30T09:19:55.609Z,100814.47
2022-08-30T09:25:32.552Z,100806.78
2022-08-30T09:28:16.263Z,100805.50
2022-08-30T09:31:01.926Z,100806.19
2022-08-30T09:33:30.510Z,100814.47
2022-08-30T09:35:59.260Z,100805.03
2022-08-30T09:38:34.726Z,100806.31
2022-08-30T09:41:54.743Z,100805.63
2022-08-30T09:44:29.647Z,100811.28
2022-08-30T09:47:01.307Z,100810.22
2022-08-30T09:49:29.793Z,100811.06
2022-08-30T09:52:14.826Z,100805.25
2022-08-30T09:55:20.210Z,100803.84
2022-08-30T09:58:48.381Z,100800.66
2022-08-30T10:01:30.380Z,100797.31
2022-08-30T10:04:18.526Z,100795.31
2022-08-30T10:07:29.013Z,100795.03
2022-08-30T10:10:14.540Z,100795.03
2022-08-30T10:13:06.968Z,100795.13
2022-08-30T10:15:47.534Z,100791.59
2022-08-30T10:18:33.698Z,100791.50
2022-08-30T10:21:26.450Z,100791.75
2022-08-30T10:24:09.055Z,100790.53
2022-08-30T10:26:38.462Z,100782.63
2022-08-30T10:29:41.890Z,100777.69
2022-08-30T10:32:28.340Z,100780.13
2022-08-30T10:35:08.038Z,100776.59
2022-08-30T10:37:44.018Z,100777.31
2022-08-30T10:40:53.714Z,100773.41
2022-08-30T10:44:01.405Z,100771.03
2022-08-30T10:46:57.477Z,100768.69
2022-08-30T10:49:30.449Z,100765.50
2022-08-30T10:52:13.663Z,100763.03
2022-08-30T10:55:23.042Z,100769.84
2022-08-30T10:57:52.196Z,100760.66
2022-08-30T11:00:32.694Z,100760.56
2022-08-30T11:03:12.074Z,100761.84
2022-08-30T11:05:49.296Z,100751.34
2022-08-30T11:08:45.038Z,100768.94
2022-08-30T11:11:31.297Z,100767.72
2022-08-30T11:14:05.455Z,100760.75
2022-08-30T11:16:41.924Z,100758.13
2022-08-30T11:19:32.342Z,100755.97
2022-08-30T11:22:26.902Z,100756.38
2022-08-30T11:25:18.332Z,100762.16
2022-08-30T11:27:55.341Z,100755.75
2022-08-30T11:30:27.137Z,100754.44
2022-08-30T11:33:13.880Z,100750.16
2022-08-30T11:35:47.394Z,100757.16
2022-08-30T11:38:36.417Z,100763.63
2022-08-30T11:41:41.472Z,100756.88
2022-08-30T11:44:22.567Z,100757.84
2022-08-30T11:46:56.217Z,100757.50
2022-08-30T11:49:33.549Z,100752.69
2022-08-30T11:52:44.136Z,100762.50
2022-08-30T11:55:41.092Z,100755.69
2022-08-30T11:58:55.348Z,100756.16
2022-08-30T12:01:50.981Z,100754.72
2022-08-30T12:04:37.439Z,100751.53
2022-08-30T12:07:09.931Z,100745.00
2022-08-30T12:09:38.281Z,100753.22
2022-08-30T12:12:08.421Z,100746.25
2022-08-30T12:14:54.732Z,100747.56
2022-08-30T12:18:16.091Z,100748.53
2022-08-30T12:20:45.889Z,100756.00
2022-08-30T12:23:44.492Z,100748.19
2022-08-30T12:26:32.330Z,100747.50
2022-08-30T12:29:26.681Z,100740.31
2022-08-30T12:32:25.776Z,100733.91
2022-08-30T12:34:55.331Z,100739.34
2022-08-30T12:37:28.077Z,100732.53
2022-08-30T12:40:21.328Z,100721.69
2022-08-30T12:43:04.740Z,100720.81
2022-08-30T12:45:50.934Z,100732.31
2022-08-30T12:48:21.609Z,100719.06
2022-08-30T12:51:01.320Z,100713.06
2022-08-30T12:53:42.062Z,100708.16
2022-08-30T12:56:14.858Z,100706.03
2022-08-30T12:58:49.631Z,100714.19
2022-08-30T13:01:32.423Z,100710.19
2022-08-30T13:04:04.777Z,100709.06
2022-08-30T13:06:52.031Z,100709.53
2022-08-30T13:09:34.680Z,100724.75
2022-08-30T13:12:07.145Z,100711.09
2022-08-30T13:14:45.614Z,100709.75
2022-08-30T13:17:20.303Z,100709.75
2022-08-30T13:20:21.344Z,100704.44
2022-08-30T13:23:10.699Z,100707.97
2022-08-30T13:25:40.708Z,100709.63
2022-08-30T13:28:09.250Z,100718.03
2022-08-30T13:30:38.935Z,100709.25
2022-08-30T13:33:10.059Z,100705.22
2022-08-30T13:35:38.526Z,100707.66
2022-08-30T13:38:07.525Z,100705.22
2022-08-30T13:40:36.575Z,100705.44
2022-08-30T13:43:05.063Z,100700.69
2022-08-30T13:45:41.360Z,100700.44
2022-08-30T13:48:11.844Z,100695.34
2022-08-30T13:50:40.962Z,100698.28
2022-08-30T13:53:10.147Z,100695.25
2022-08-30T13:55:40.003Z,100696.81
2022-08-30T13:58:09.482Z,100691.00
2022-08-30T14:00:38.223Z,100689.19
2022-08-30T14:03:07.117Z,100690.00
2022-08-30T14:05:49.468Z,100702.19
2022-08-30T14:11:19.490Z,100687.19
2022-08-30T14:16:43.537Z,100687.19
2022-08-30T14:19:14.526Z,100693.13
2022-08-30T14:21:43.402Z,100682.69
2022-08-30T14:24:15.153Z,100691.59
2022-08-30T14:26:51.908Z,100681.38
2022-08-30T14:29:26.002Z,100686.97
2022-08-30T14:31:54.907Z,100690.03
2022-08-30T14:34:24.117Z,100692.31
2022-08-30T14:36:52.535Z,100689.88
2022-08-30T14:39:22.429Z,100682.91
2022-08-30T14:41:55.313Z,100678.31
2022-08-30T14:44:25.859Z,100693.97
2022-08-30T14:46:54.636Z,100696.22
2022-08-30T14:49:23.497Z,100681.94
2022-08-30T14:51:52.208Z,100675.53
2022-08-30T14:54:25.985Z,100675.91
2022-08-30T14:56:55.397Z,100677.06
2022-08-30T14:59:24.361Z,100676.88
2022-08-30T15:01:52.830Z,100680.34
2022-08-30T15:04:21.774Z,100678.38
2022-08-30T15:06:51.093Z,100679.09
2022-08-30T15:09:24.659Z,100671.91
2022-08-30T15:11:58.528Z,100678.69
2022-08-30T15:14:28.296Z,100675.84
2022-08-30T15:16:58.301Z,100676.09
2022-08-30T15:19:27.577Z,100675.03
2022-08-30T15:21:59.569Z,100674.72
2022-08-30T15:24:30.160Z,100666.22
2022-08-30T15:27:02.469Z,100671.59
2022-08-30T15:29:32.035Z,100674.22
2022-08-30T15:32:02.131Z,100674.38
2022-08-30T15:34:31.242Z,100677.56
2022-08-30T15:36:59.915Z,100675.91
2022-08-30T15:39:29.499Z,100677.81
2022-08-30T15:42:00.939Z,100676.06
2022-08-30T15:44:32.725Z,100679.69
2022-08-30T15:47:03.234Z,100670.81
2022-08-30T15:49:31.720Z,100671.88
2022-08-30T15:52:03.485Z,100667.03
2022-08-30T15:54:32.282Z,100668.19
2022-08-30T15:57:01.299Z,100663.25
2022-08-30T15:59:32.789Z,100658.91
2022-08-30T16:02:01.457Z,100661.44
2022-08-30T16:04:29.962Z,100659.31
2022-08-30T16:06:58.412Z,100651.31
2022-08-30T16:09:30.090Z,100657.13
2022-08-30T16:12:01.905Z,100651.47
2022-08-30T16:14:30.509Z,100651.97
2022-08-30T16:16:59.747Z,100644.03
2022-08-30T16:19:29.001Z,100649.25
2022-08-30T16:21:57.571Z,100642.16
2022-08-30T16:24:26.129Z,100643.47
2022-08-30T16:26:54.907Z,100640.19
2022-08-30T16:29:23.622Z,100640.63
2022-08-30T16:31:52.127Z,100637.31
2022-08-30T16:34:21.761Z,100637.16
2022-08-30T16:36:50.207Z,100638.72
2022-08-30T16:39:18.881Z,100634.00
2022-08-30T16:41:48.769Z,100626.91
2022-08-30T16:44:17.800Z,100624.13
2022-08-30T16:46:53.367Z,100624.81
2022-08-30T16:49:23.278Z,100627.28
2022-08-30T16:51:53.953Z,100627.09
2022-08-30T16:54:23.134Z,100626.75
2022-08-30T16:56:51.742Z,100627.81
2022-08-30T16:59:20.230Z,100616.88
2022-08-30T17:01:49.248Z,100625.16
2022-08-30T17:04:19.377Z,100624.44
2022-08-30T17:06:50.520Z,100625.16
2022-08-30T17:09:19.700Z,100620.13
2022-08-30T17:11:48.883Z,100617.44
2022-08-30T17:17:22.077Z,100623.44
2022-08-30T17:19:50.630Z,100622.84
2022-08-30T17:22:19.050Z,100618.25
2022-08-30T17:25:08.479Z,100622.63
2022-08-30T17:27:37.543Z,100621.81
2022-08-30T17:30:10.414Z,100615.53
2022-08-30T17:32:38.849Z,100616.25
2022-08-30T17:35:08.987Z,100617.22
2022-08-30T17:37:38.246Z,100622.41
2022-08-30T17:40:07.515Z,100625.63
2022-08-30T17:42:44.647Z,100632.81
2022-08-30T17:45:15.293Z,100635.50
2022-08-30T17:47:44.099Z,100632.84
2022-08-30T17:50:13.057Z,100633.16
2022-08-30T17:52:42.006Z,100635.19
2022-08-30T17:55:10.976Z,100636.72
2022-08-30T17:57:41.915Z,100647.06
2022-08-30T18:00:15.676Z,100652.75
2022-08-30T18:02:44.792Z,100655.94
2022-08-30T18:05:14.064Z,100659.69
2022-08-30T18:07:42.485Z,100653.56
2022-08-30T18:10:13.419Z,100658.63
2022-08-30T18:12:41.851Z,100657.94
2022-08-30T18:15:12.322Z,100657.09
2022-08-30T18:17:42.994Z,100662.63
2022-08-30T18:20:12.025Z,100663.94
2022-08-30T18:22:40.554Z,100663.22
2022-08-30T18:25:09.899Z,100660.34
2022-08-30T18:27:41.307Z,100666.97
2022-08-30T18:30:14.898Z,100678.38
2022-08-30T18:32:43.328Z,100681.16
2022-08-30T18:35:11.794Z,100684.91
2022-08-30T18:37:40.737Z,100679.13
2022-08-30T18:40:09.838Z,100689.84
2022-08-30T18:42:40.725Z,100687.81
2022-08-30T18:45:15.044Z,100700.97
2022-08-30T18:47:43.943Z,100697.94
2022-08-30T18:50:12.849Z,100692.59
2022-08-30T18:52:41.294Z,100694.69
2022-08-30T18:55:13.509Z,100696.66
2022-08-30T18:57:41.975Z,100692.16
2022-08-30T19:00:11.867Z,100696.63
2022-08-30T19:02:43.544Z,100697.06
2022-08-30T19:05:12.853Z,100693.16
2022-08-30T19:07:41.484Z,100704.91
2022-08-30T19:10:12.280Z,100705.34
2022-08-30T19:12:41.176Z,100688.97
2022-08-30T19:15:11.791Z,100695.66
2022-08-30T19:17:43.601Z,100698.59
2022-08-30T19:20:16.864Z,100702.56
2022-08-30T19:23:08.554Z,100691.38
2022-08-30T19:25:33.777Z,100700.97
2022-08-30T19:28:02.226Z,100701.19
2022-08-30T19:30:34.477Z,100701.25
2022-08-30T19:33:03.239Z,100697.00
2022-08-30T19:35:31.843Z,100701.78
2022-08-30T19:38:00.366Z,100700.94
2022-08-30T19:40:29.686Z,100700.56
2022-08-30T19:43:01.850Z,100711.03
2022-08-30T19:45:30.293Z,100710.84
2022-08-30T19:48:02.215Z,100706.09
2022-08-30T19:50:30.630Z,100701.38
2022-08-30T19:52:59.426Z,100711.81
2022-08-30T19:55:31.328Z,100708.91
2022-08-30T19:58:00.283Z,100705.19
2022-08-30T20:00:31.030Z,100704.81
2022-08-30T20:03:01.357Z,100713.97
2022-08-30T20:05:30.848Z,100715.22
2022-08-30T20:07:59.768Z,100713.59
2022-08-30T20:10:28.351Z,100716.75
2022-08-30T20:12:56.998Z,100717.19
2022-08-30T20:15:26.331Z,100722.41
2022-08-30T20:18:14.047Z,100715.19
2022-08-30T20:20:49.438Z,100714.59
2022-08-30T20:26:07.479Z,100714.88
2022-08-30T20:28:35.947Z,100719.28
2022-08-30T20:31:06.741Z,100723.66
2022-08-30T20:33:37.517Z,100713.94
2022-08-30T20:36:09.720Z,100720.22
2022-08-30T20:38:38.627Z,100718.38
2022-08-30T20:41:16.692Z,100718.38
2022-08-30T20:43:45.790Z,100720.09
2022-08-30T20:46:17.906Z,100720.50
2022-08-30T20:48:47.007Z,100718.63
2022-08-30T20:51:19.397Z,100724.66
2022-08-30T20:53:47.861Z,100725.50
2022-08-30T20:56:21.744Z,100723.66
2022-08-30T20:58:51.231Z,100732.63
2022-08-30T21:01:20.260Z,100720.88
2022-08-30T21:03:50.897Z,100728.53
2022-08-30T21:06:19.385Z,100726.47
2022-08-30T21:08:47.739Z,100728.78
2022-08-30T21:11:16.372Z,100736.91
2022-08-30T21:13:44.806Z,100733.56
2022-08-30T21:16:13.221Z,100737.53
2022-08-30T21:18:41.674Z,100732.56
2022-08-30T21:21:21.285Z,100731.94
2022-08-30T21:23:50.884Z,100729.44
2022-08-30T21:26:20.922Z,100735.03
2022-08-30T21:28:54.364Z,100739.63
2022-08-30T21:31:28.854Z,100733.63
2022-08-30T21:33:58.001Z,100731.34
2022-08-30T21:36:45.878Z,100742.31
2022-08-30T21:39:34.115Z,100748.13
2022-08-30T21:42:02.665Z,100741.09
2022-08-30T21:44:31.036Z,100748.81
2022-08-30T21:46:59.721Z,100749.00
2022-08-30T21:49:28.270Z,100749.84
2022-08-30T21:51:56.854Z,100744.03
2022-08-30T21:54:28.347Z,100744.69
2022-08-30T21:57:01.838Z,100744.28
2022-08-30T21:59:30.592Z,100753.41
2022-08-30T22:01:59.830Z,100742.81
2022-08-30T22:04:29.444Z,100753.81
2022-08-30T22:06:57.808Z,100745.09
2022-08-30T22:09:26.966Z,100746.16
2022-08-30T22:11:55.822Z,100760.06
2022-08-30T22:14:25.060Z,100749.47
2022-08-30T22:16:55.095Z,100743.06
2022-08-30T22:19:23.755Z,100752.59
2022-08-30T22:22:00.696Z,100755.69
2022-08-30T22:24:32.208Z,100757.78
2022-08-30T22:27:02.703Z,100762.53
2022-08-30T22:29:31.260Z,100759.00
2022-08-30T22:32:00.088Z,100757.56
2022-08-30T22:34:28.798Z,100762.34
2022-08-30T22:36:57.175Z,100767.75
2022-08-30T22:39:25.594Z,100758.22
2022-08-30T22:41:54.178Z,100755.09
2022-08-30T22:44:22.841Z,100751.34
2022-08-30T22:46:51.652Z,100748.88
2022-08-30T22:49:20.820Z,100760.06
2022-08-30T22:51:49.410Z,100765.47
2022-08-30T22:54:18.051Z,100764.00
2022-08-30T22:56:46.845Z,100764.63
2022-08-30T22:59:15.416Z,100759.63
2022-08-30T23:01:44.806Z,100770.19
2022-08-30T23:04:13.943Z,100769.56
2022-08-30T23:06:49.728Z,100779.06
2022-08-30T23:09:18.999Z,100778.22
2022-08-30T23:11:49.489Z,100780.53
2022-08-30T23:14:17.887Z,100787.16
2022-08-30T23:16:46.932Z,100780.13
2022-08-30T23:19:16.174Z,100785.09
2022-08-30T23:21:44.635Z,100777.59
2022-08-30T23:24:30.546Z,100785.69
2022-08-30T23:27:16.314Z,100785.06
2022-08-30T23:30:02.038Z,100784.44
2022-08-30T23:32:48.045Z,100781.75
2022-08-30T23:35:33.846Z,100781.72
2022-08-30T23:38:24.042Z,100783.19
2022-08-30T23:41:09.876Z,100783.34
2022-08-30T23:43:56.261Z,100787.94
2022-08-30T23:46:42.115Z,100785.44
2022-08-30T23:49:28.012Z,100780.06
2022-08-30T23:52:14.296Z,100785.22
2022-08-30T23:55:00.189Z,100781.06
2022-08-30T23:57:46.522Z,100787.31
